createdAt,value
2023-01-29T00:01:54.757Z,-0.30
2023-01-29T00:04:21.894Z,-0.40
2023-01-29T00:06:48.747Z,-0.40
2023-01-29T00:09:15.788Z,-0.40
2023-01-29T00:11:42.522Z,-0.40
2023-01-29T00:14:09.361Z,-0.40
2023-01-29T00:16:36.591Z,-0.40
2023-01-29T00:19:04.117Z,-0.40
2023-01-29T00:21:32.313Z,-0.40
2023-01-29T00:23:59.938Z,-0.40
2023-01-29T00:26:27.318Z,-0.40
2023-01-29T00:28:55.198Z,-0.40
2023-01-29T00:31:24.179Z,-0.40
2023-01-29T00:33:51.523Z,-0.40
2023-01-29T00:36:20.946Z,-0.40
2023-01-29T00:38:54.787Z,-0.40
2023-01-29T00:41:40.841Z,-0.40
2023-01-29T00:44:26.567Z,-0.40
2023-01-29T00:46:53.454Z,-0.40
2023-01-29T00:49:20.573Z,-0.40
2023-01-29T00:52:09.965Z,-0.40
2023-01-29T00:54:36.825Z,-0.40
2023-01-29T00:57:04.429Z,-0.40
2023-01-29T00:59:31.341Z,-0.40
2023-01-29T01:02:16.908Z,-0.40
2023-01-29T01:04:46.039Z,-0.50
2023-01-29T01:09:57.308Z,-0.40
2023-01-29T01:12:24.174Z,-0.40
2023-01-29T01:14:50.850Z,-0.50
2023-01-29T01:17:17.669Z,-0.50
2023-01-29T01:19:44.717Z,-0.50
2023-01-29T01:22:12.080Z,-0.50
2023-01-29T01:24:39.315Z,-0.50
2023-01-29T01:27:06.799Z,-0.40
2023-01-29T01:29:33.793Z,-0.40
2023-01-29T01:32:00.614Z,-0.40
2023-01-29T01:34:27.692Z,-0.40
2023-01-29T01:36:56.114Z,-0.40
2023-01-29T01:39:24.133Z,-0.40
2023-01-29T01:41:55.097Z,-0.40
2023-01-29T01:45:01.393Z,-0.40
2023-01-29T01:47:57.361Z,-0.40
2023-01-29T01:50:50.775Z,-0.40
2023-01-29T01:53:34.485Z,-0.40
2023-01-29T01:56:06.493Z,-0.40
2023-01-29T01:58:42.024Z,-0.40
2023-01-29T02:01:09.819Z,-0.40
2023-01-29T02:04:13.297Z,-0.40
2023-01-29T02:06:59.772Z,-0.50
2023-01-29T02:09:38.823Z,-0.50
2023-01-29T02:12:08.748Z,-0.50
2023-01-29T02:14:40.333Z,-0.40
2023-01-29T02:17:13.145Z,-0.40
2023-01-29T02:19:58.991Z,-0.40
2023-01-29T02:22:54.995Z,-0.40
2023-01-29T02:25:21.688Z,-0.40
2023-01-29T02:28:07.053Z,-0.50
2023-01-29T02:30:40.261Z,-0.50
2023-01-29T02:33:26.350Z,-0.50
2023-01-29T02:36:12.977Z,-0.50
2023-01-29T02:38:43.748Z,-0.50
2023-01-29T02:41:22.767Z,-0.60
2023-01-29T02:44:10.280Z,-0.60
2023-01-29T02:46:51.207Z,-0.60
2023-01-29T02:49:41.120Z,-0.60
2023-01-29T02:52:17.866Z,-0.60
2023-01-29T02:54:53.018Z,-0.60
2023-01-29T02:57:36.742Z,-0.60
2023-01-29T03:00:16.291Z,-0.60
2023-01-29T03:02:52.441Z,-0.60
2023-01-29T03:05:28.683Z,-0.60
2023-01-29T03:08:01.452Z,-0.60
2023-01-29T03:10:31.119Z,-0.60
2023-01-29T03:13:09.291Z,-0.60
2023-01-29T03:15:47.384Z,-0.60
2023-01-29T03:18:26.012Z,-0.60
2023-01-29T03:20:58.634Z,-0.60
2023-01-29T03:23:53.722Z,-0.60
2023-01-29T03:26:41.435Z,-0.50
2023-01-29T03:29:28.198Z,-0.50
2023-01-29T03:32:06.529Z,-0.60
2023-01-29T03:34:46.867Z,-0.60
2023-01-29T03:37:45.035Z,-0.60
2023-01-29T03:40:13.403Z,-0.60
2023-01-29T03:43:05.718Z,-0.60
2023-01-29T03:45:52.026Z,-0.60
2023-01-29T03:48:35.366Z,-0.70
2023-01-29T03:51:34.389Z,-0.70
2023-01-29T03:54:09.905Z,-0.60
2023-01-29T03:56:54.790Z,-0.60
2023-01-29T03:59:25.793Z,-0.60
2023-01-29T04:01:56.690Z,-0.60
2023-01-29T04:04:36.943Z,-0.60
2023-01-29T04:07:13.061Z,-0.60
2023-01-29T04:10:02.797Z,-0.60
2023-01-29T04:12:56.738Z,-0.60
2023-01-29T04:15:26.000Z,-0.60
2023-01-29T04:17:55.865Z,-0.60
2023-01-29T04:20:23.658Z,-0.60
2023-01-29T04:22:51.491Z,-0.60
2023-01-29T04:25:36.305Z,-0.70
2023-01-29T04:28:10.421Z,-0.60
2023-01-29T04:30:54.193Z,-0.60
2023-01-29T04:33:30.575Z,-0.60
2023-01-29T04:36:11.893Z,-0.60
2023-01-29T04:38:47.889Z,-0.60
2023-01-29T04:41:45.097Z,-0.60
2023-01-29T04:44:33.083Z,-0.70
2023-01-29T04:47:18.434Z,-0.70
2023-01-29T04:49:56.302Z,-0.70
2023-01-29T04:52:41.069Z,-0.70
2023-01-29T04:55:22.247Z,-0.70
2023-01-29T04:58:00.302Z,-0.70
2023-01-29T05:00:32.216Z,-0.70
2023-01-29T05:03:01.505Z,-0.70
2023-01-29T05:05:29.050Z,-0.60
2023-01-29T05:07:58.310Z,-0.70
2023-01-29T05:10:26.311Z,-0.70
2023-01-29T05:13:04.028Z,-0.70
2023-01-29T05:15:44.784Z,-0.70
2023-01-29T05:18:11.564Z,-0.80
2023-01-29T05:20:41.187Z,-0.80
2023-01-29T05:23:16.302Z,-0.80
2023-01-29T05:25:43.976Z,-0.80
2023-01-29T05:28:16.584Z,-0.80
2023-01-29T05:30:48.933Z,-0.80
2023-01-29T05:33:24.543Z,-0.80
2023-01-29T05:35:51.571Z,-0.80
2023-01-29T05:38:19.108Z,-0.80
2023-01-29T05:40:46.127Z,-0.80
2023-01-29T05:43:20.636Z,-0.80
2023-01-29T05:45:58.847Z,-0.70
2023-01-29T05:48:28.844Z,-0.80
2023-01-29T05:51:01.099Z,-0.80
2023-01-29T05:53:29.467Z,-0.70
2023-01-29T05:55:58.919Z,-0.80
2023-01-29T05:58:25.723Z,-0.90
2023-01-29T06:00:52.496Z,-0.80
2023-01-29T06:03:19.196Z,-0.90
2023-01-29T06:05:45.907Z,-0.90
2023-01-29T06:08:13.255Z,-0.90
2023-01-29T06:10:40.107Z,-0.90
2023-01-29T06:13:07.896Z,-0.90
2023-01-29T06:15:34.599Z,-0.90
2023-01-29T06:18:01.256Z,-0.90
2023-01-29T06:20:28.064Z,-0.90
2023-01-29T06:22:54.746Z,-0.90
2023-01-29T06:25:21.456Z,-0.90
2023-01-29T06:27:51.118Z,-0.90
2023-01-29T06:30:18.428Z,-0.90
2023-01-29T06:32:45.289Z,-0.90
2023-01-29T06:35:12.065Z,-1.00
2023-01-29T06:37:38.797Z,-0.90
2023-01-29T06:40:06.086Z,-0.90
2023-01-29T06:42:35.482Z,-1.00
2023-01-29T06:45:02.159Z,-0.90
2023-01-29T06:47:28.901Z,-0.90
2023-01-29T06:49:55.544Z,-0.90
2023-01-29T06:52:22.303Z,-0.80
2023-01-29T06:54:49.071Z,-0.90
2023-01-29T06:57:15.760Z,-0.90
2023-01-29T06:59:42.527Z,-0.90
2023-01-29T07:02:09.550Z,-0.80
2023-01-29T07:04:37.783Z,-0.90
2023-01-29T07:07:04.826Z,-0.90
2023-01-29T07:09:31.972Z,-0.90
2023-01-29T07:11:58.681Z,-0.90
2023-01-29T07:14:25.392Z,-0.90
2023-01-29T07:16:52.087Z,-0.90
2023-01-29T07:19:18.770Z,-0.90
2023-01-29T07:21:45.563Z,-0.90
2023-01-29T07:24:12.377Z,-0.90
2023-01-29T07:26:39.141Z,-0.90
2023-01-29T07:29:05.843Z,-0.90
2023-01-29T07:31:32.780Z,-0.90
2023-01-29T07:33:59.526Z,-0.90
2023-01-29T07:36:27.149Z,-0.90
2023-01-29T07:38:53.947Z,-0.80
2023-01-29T07:41:20.756Z,-0.80
2023-01-29T07:43:48.009Z,-0.90
2023-01-29T07:46:15.083Z,-0.80
2023-01-29T07:48:41.984Z,-0.90
2023-01-29T07:51:08.671Z,-0.90
2023-01-29T07:53:36.913Z,-0.80
2023-01-29T07:56:03.757Z,-0.80
2023-01-29T07:58:30.508Z,-0.80
2023-01-29T08:00:57.219Z,-0.80
2023-01-29T08:03:24.061Z,-0.80
2023-01-29T08:05:50.849Z,-0.80
2023-01-29T08:08:17.733Z,-0.80
2023-01-29T08:10:44.500Z,-0.80
2023-01-29T08:13:11.222Z,-0.80
2023-01-29T08:15:39.195Z,-0.80
2023-01-29T08:18:06.709Z,-0.80
2023-01-29T08:20:33.554Z,-0.80
2023-01-29T08:23:05.886Z,-0.80
2023-01-29T08:25:33.218Z,-0.80
2023-01-29T08:28:00.871Z,-0.80
2023-01-29T08:30:29.560Z,-0.80
2023-01-29T08:32:56.474Z,-0.80
2023-01-29T08:35:23.734Z,-0.80
2023-01-29T08:38:03.311Z,-0.80
2023-01-29T08:40:32.568Z,-0.70
2023-01-29T08:43:05.496Z,-0.70
2023-01-29T08:45:38.027Z,-0.70
2023-01-29T08:48:05.286Z,-0.70
2023-01-29T08:50:32.970Z,-0.60
2023-01-29T08:53:01.298Z,-0.70
2023-01-29T08:55:29.144Z,-0.60
2023-01-29T08:57:57.362Z,-0.70
2023-01-29T09:00:24.590Z,-0.60
2023-01-29T09:02:51.307Z,-0.70
2023-01-29T09:05:18.535Z,-0.70
2023-01-29T09:07:45.553Z,-0.60
2023-01-29T09:10:12.453Z,-0.60
2023-01-29T09:12:39.214Z,-0.60
2023-01-29T09:15:06.421Z,-0.60
2023-01-29T09:17:33.241Z,-0.60
2023-01-29T09:19:59.994Z,-0.60
2023-01-29T09:22:27.159Z,-0.60
2023-01-29T09:24:53.979Z,-0.60
2023-01-29T09:27:20.666Z,-0.60
2023-01-29T09:29:47.406Z,-0.60
2023-01-29T09:32:15.584Z,-0.60
2023-01-29T09:34:43.765Z,-0.50
2023-01-29T09:37:10.623Z,-0.60
2023-01-29T09:39:37.352Z,-0.60
2023-01-29T09:42:30.008Z,-0.50
2023-01-29T09:45:10.375Z,-0.50
2023-01-29T09:47:37.607Z,-0.40
2023-01-29T09:50:31.087Z,-0.50
2023-01-29T09:53:23.205Z,-0.50
2023-01-29T09:56:01.061Z,-0.50
2023-01-29T09:58:29.498Z,-0.40
2023-01-29T10:01:38.916Z,-0.40
2023-01-29T10:04:39.618Z,-0.40
2023-01-29T10:07:21.642Z,-0.40
2023-01-29T10:09:53.837Z,-0.40
2023-01-29T10:12:41.976Z,-0.50
2023-01-29T10:15:48.263Z,-0.40
2023-01-29T10:18:34.259Z,-0.40
2023-01-29T10:21:27.309Z,-0.30
2023-01-29T10:24:10.885Z,-0.20
2023-01-29T10:26:38.647Z,-0.10
2023-01-29T10:29:07.839Z,-0.10
2023-01-29T10:31:39.672Z,0.00
2023-01-29T10:34:14.980Z,0.00
2023-01-29T10:36:47.239Z,0.00
2023-01-29T10:39:22.063Z,0.00
2023-01-29T10:42:09.789Z,0.00
2023-01-29T10:45:03.018Z,0.10
2023-01-29T10:48:04.131Z,0.00
2023-01-29T10:50:58.750Z,0.10
2023-01-29T10:53:25.429Z,0.00
2023-01-29T10:55:52.184Z,0.10
2023-01-29T10:58:46.069Z,0.10
2023-01-29T11:01:14.031Z,0.20
2023-01-29T11:03:40.881Z,0.20
2023-01-29T11:06:13.857Z,0.30
2023-01-29T11:09:11.732Z,0.30
2023-01-29T11:11:45.252Z,0.30
2023-01-29T11:14:31.874Z,0.40
2023-01-29T11:16:59.440Z,0.50
2023-01-29T11:19:41.865Z,0.60
2023-01-29T11:22:16.947Z,0.70
2023-01-29T11:24:44.695Z,0.90
2023-01-29T11:27:26.556Z,1.00
2023-01-29T11:29:54.074Z,0.80
2023-01-29T11:32:30.343Z,0.90
2023-01-29T11:35:12.374Z,0.80
2023-01-29T11:37:41.698Z,0.70
2023-01-29T11:40:37.736Z,0.70
2023-01-29T11:43:22.877Z,0.80
2023-01-29T11:45:53.338Z,0.90
2023-01-29T11:48:23.014Z,1.00
2023-01-29T11:51:10.971Z,1.00
2023-01-29T11:53:41.872Z,1.10
2023-01-29T11:56:20.856Z,1.10
2023-01-29T11:58:49.825Z,1.10
2023-01-29T12:01:19.211Z,1.00
2023-01-29T12:03:53.938Z,1.00
2023-01-29T12:06:24.733Z,1.00
2023-01-29T12:08:58.081Z,1.00
2023-01-29T12:11:31.720Z,1.00
2023-01-29T12:14:04.677Z,1.00
2023-01-29T12:16:52.148Z,1.00
2023-01-29T12:19:44.276Z,1.00
2023-01-29T12:22:35.140Z,1.00
2023-01-29T12:25:21.687Z,1.00
2023-01-29T12:28:19.561Z,1.00
2023-01-29T12:31:01.062Z,1.10
2023-01-29T12:33:58.716Z,1.10
2023-01-29T12:36:40.649Z,1.20
2023-01-29T12:39:16.608Z,1.30
2023-01-29T12:41:59.849Z,1.30
2023-01-29T12:44:42.584Z,1.40
2023-01-29T12:47:30.376Z,1.40
2023-01-29T12:50:02.292Z,1.30
2023-01-29T12:52:44.977Z,1.30
2023-01-29T12:55:19.493Z,1.30
2023-01-29T12:57:59.810Z,1.30
2023-01-29T13:00:40.316Z,1.30
2023-01-29T13:03:19.182Z,1.20
2023-01-29T13:05:56.574Z,1.30
2023-01-29T13:08:53.798Z,1.20
2023-01-29T13:11:29.694Z,1.30
2023-01-29T13:14:04.055Z,1.30
2023-01-29T13:16:37.561Z,1.40
2023-01-29T13:19:11.802Z,1.40
2023-01-29T13:21:42.345Z,1.40
2023-01-29T13:24:16.298Z,1.30
2023-01-29T13:26:47.786Z,1.40
2023-01-29T13:29:27.900Z,1.40
2023-01-29T13:31:57.083Z,1.40
2023-01-29T13:34:35.295Z,1.40
2023-01-29T13:37:09.075Z,1.40
2023-01-29T13:39:46.549Z,1.50
2023-01-29T13:42:42.727Z,1.40
2023-01-29T13:45:20.468Z,1.40
2023-01-29T13:47:48.516Z,1.50
2023-01-29T13:50:30.674Z,1.50
2023-01-29T13:53:02.128Z,1.40
2023-01-29T13:55:33.341Z,1.50
2023-01-29T13:58:05.724Z,1.50
2023-01-29T14:00:35.193Z,1.50
2023-01-29T14:03:01.827Z,1.50
2023-01-29T14:05:31.776Z,1.40
2023-01-29T14:08:03.373Z,1.40
2023-01-29T14:10:31.852Z,1.40
2023-01-29T14:13:04.449Z,1.40
2023-01-29T14:15:36.277Z,1.50
2023-01-29T14:18:13.902Z,1.40
2023-01-29T14:21:02.587Z,1.40
2023-01-29T14:23:53.171Z,1.40
2023-01-29T14:26:22.458Z,1.40
2023-01-29T14:29:02.797Z,1.30
2023-01-29T14:31:43.678Z,1.30
2023-01-29T14:34:48.352Z,1.30
2023-01-29T14:37:15.075Z,1.30
2023-01-29T14:40:24.967Z,1.20
2023-01-29T14:42:57.845Z,1.30
2023-01-29T14:45:26.690Z,1.30
2023-01-29T14:47:56.384Z,1.30
2023-01-29T14:50:29.274Z,1.20
2023-01-29T14:53:20.489Z,1.20
2023-01-29T14:56:03.908Z,1.20
2023-01-29T14:58:39.322Z,1.20
2023-01-29T15:01:16.701Z,1.20
2023-01-29T15:03:56.187Z,1.20
2023-01-29T15:06:29.493Z,1.10
2023-01-29T15:09:16.620Z,1.10
2023-01-29T15:11:52.280Z,1.10
2023-01-29T15:14:32.511Z,1.10
2023-01-29T15:17:25.394Z,1.00
2023-01-29T15:19:52.974Z,1.00
2023-01-29T15:22:20.846Z,1.00
2023-01-29T15:25:07.290Z,1.00
2023-01-29T15:27:34.278Z,1.00
2023-01-29T15:30:04.342Z,1.00
2023-01-29T15:32:39.579Z,1.00
2023-01-29T15:35:17.462Z,1.00
2023-01-29T15:37:57.646Z,0.90
2023-01-29T15:40:24.580Z,0.90
2023-01-29T15:42:51.289Z,0.90
2023-01-29T15:45:30.981Z,0.90
2023-01-29T15:48:03.664Z,0.80
2023-01-29T15:50:32.565Z,0.80
2023-01-29T15:53:03.727Z,0.80
2023-01-29T15:55:31.760Z,0.70
2023-01-29T15:58:00.124Z,0.70
2023-01-29T16:00:29.594Z,0.70
2023-01-29T16:02:57.848Z,0.70
2023-01-29T16:05:29.120Z,0.70
2023-01-29T16:07:57.710Z,0.60
2023-01-29T16:10:30.067Z,0.60
2023-01-29T16:12:57.469Z,0.60
2023-01-29T16:15:36.211Z,0.50
2023-01-29T16:18:18.836Z,0.50
2023-01-29T16:20:51.313Z,0.50
2023-01-29T16:23:22.750Z,0.40
2023-01-29T16:25:51.068Z,0.30
2023-01-29T16:28:19.058Z,0.30
2023-01-29T16:30:46.024Z,0.30
2023-01-29T16:33:17.131Z,0.20
2023-01-29T16:35:51.591Z,0.10
2023-01-29T16:38:31.560Z,0.10
2023-01-29T16:41:27.736Z,0.10
2023-01-29T16:44:02.896Z,0.10
2023-01-29T16:46:38.522Z,0.00
2023-01-29T16:49:31.328Z,0.00
2023-01-29T16:52:17.704Z,0.00
2023-01-29T16:54:44.611Z,0.00
2023-01-29T16:57:15.899Z,0.00
2023-01-29T16:59:43.554Z,0.00
2023-01-29T17:02:33.399Z,0.00
2023-01-29T17:05:10.248Z,-0.10
2023-01-29T17:07:38.010Z,-0.20
2023-01-29T17:10:06.928Z,-0.20
2023-01-29T17:12:34.293Z,-0.30
2023-01-29T17:15:25.868Z,-0.30
2023-01-29T17:17:52.530Z,-0.30
2023-01-29T17:20:19.312Z,-0.50
2023-01-29T17:22:47.045Z,-0.50
2023-01-29T17:25:15.293Z,-0.50
2023-01-29T17:27:43.806Z,-0.60
2023-01-29T17:30:15.855Z,-0.60
2023-01-29T17:32:45.158Z,-0.60
2023-01-29T17:35:16.393Z,-0.60
2023-01-29T17:37:44.283Z,-0.60
2023-01-29T17:40:42.186Z,-0.40
2023-01-29T17:43:11.660Z,-0.60
2023-01-29T17:45:39.545Z,-0.70
2023-01-29T17:48:30.338Z,-0.80
2023-01-29T17:51:01.887Z,-0.80
2023-01-29T17:53:43.209Z,-0.80
2023-01-29T17:56:15.989Z,-0.80
2023-01-29T17:58:43.289Z,-0.90
2023-01-29T18:01:10.201Z,-0.80
2023-01-29T18:03:37.466Z,-0.80
2023-01-29T18:06:07.949Z,-0.80
2023-01-29T18:08:37.019Z,-0.90
2023-01-29T18:11:04.056Z,-0.90
2023-01-29T18:13:31.164Z,-1.00
2023-01-29T18:16:00.165Z,-1.00
2023-01-29T18:18:27.323Z,-1.00
2023-01-29T18:20:54.259Z,-1.00
2023-01-29T18:23:21.244Z,-1.00
2023-01-29T18:25:48.072Z,-1.00
2023-01-29T18:28:19.689Z,-1.10
2023-01-29T18:30:47.551Z,-1.00
2023-01-29T18:33:15.704Z,-1.00
2023-01-29T18:35:44.554Z,-1.00
2023-01-29T18:38:11.722Z,-1.10
2023-01-29T18:40:38.611Z,-1.10
2023-01-29T18:43:05.318Z,-1.20
2023-01-29T18:45:32.156Z,-1.30
2023-01-29T18:47:59.206Z,-1.30
2023-01-29T18:50:27.204Z,-1.40
2023-01-29T18:52:54.500Z,-1.30
2023-01-29T18:55:22.048Z,-1.30
2023-01-29T18:58:26.702Z,-1.50
2023-01-29T19:00:39.594Z,-1.50
2023-01-29T19:03:06.349Z,-1.50
2023-01-29T19:05:33.976Z,-1.50
2023-01-29T19:08:02.003Z,-1.40
2023-01-29T19:10:29.093Z,-1.50
2023-01-29T19:12:55.870Z,-1.40
2023-01-29T19:15:23.025Z,-1.50
2023-01-29T19:17:53.126Z,-1.50
2023-01-29T19:20:20.141Z,-1.50
2023-01-29T19:22:46.898Z,-1.60
2023-01-29T19:25:13.762Z,-1.50
2023-01-29T19:27:40.452Z,-1.60
2023-01-29T19:30:08.004Z,-1.70
2023-01-29T19:32:34.837Z,-1.70
2023-01-29T19:35:01.567Z,-1.80
2023-01-29T19:37:30.446Z,-1.80
2023-01-29T19:39:58.970Z,-1.90
2023-01-29T19:42:25.887Z,-1.80
2023-01-29T19:44:53.475Z,-1.80
2023-01-29T19:47:20.978Z,-1.90
2023-01-29T19:49:47.717Z,-1.80
2023-01-29T19:52:51.056Z,-1.90
2023-01-29T19:55:20.055Z,-2.00
2023-01-29T19:57:47.381Z,-1.90
2023-01-29T20:00:15.553Z,-1.90
2023-01-29T20:02:42.261Z,-2.00
2023-01-29T20:05:11.946Z,-2.10
2023-01-29T20:07:42.235Z,-2.10
2023-01-29T20:10:11.610Z,-2.10
2023-01-29T20:12:38.485Z,-2.10
2023-01-29T20:15:07.192Z,-2.00
2023-01-29T20:17:34.107Z,-2.10
2023-01-29T20:20:01.630Z,-2.10
2023-01-29T20:22:29.876Z,-2.00
2023-01-29T20:24:56.694Z,-2.10
2023-01-29T20:27:23.665Z,-2.20
2023-01-29T20:29:52.548Z,-2.20
2023-01-29T20:32:19.374Z,-2.30
2023-01-29T20:34:49.704Z,-2.30
2023-01-29T20:37:16.537Z,-2.30
2023-01-29T20:39:43.221Z,-2.20
2023-01-29T20:42:09.977Z,-2.20
2023-01-29T20:44:36.755Z,-2.30
2023-01-29T20:47:04.097Z,-2.40
2023-01-29T20:49:31.666Z,-2.30
2023-01-29T20:51:58.383Z,-2.30
2023-01-29T20:54:25.194Z,-2.40
2023-01-29T20:56:52.162Z,-2.30
2023-01-29T20:59:19.226Z,-2.30
2023-01-29T21:01:45.994Z,-2.30
2023-01-29T21:04:12.974Z,-2.40
2023-01-29T21:06:39.665Z,-2.40
2023-01-29T21:09:06.447Z,-2.50
2023-01-29T21:11:33.574Z,-2.50
2023-01-29T21:14:01.827Z,-2.50
2023-01-29T21:16:28.921Z,-2.40
2023-01-29T21:18:57.281Z,-2.40
2023-01-29T21:21:24.437Z,-2.40
2023-01-29T21:23:51.607Z,-2.40
2023-01-29T21:26:18.998Z,-2.50
2023-01-29T21:28:46.363Z,-2.50
2023-01-29T21:31:17.662Z,-2.60
2023-01-29T21:33:44.597Z,-2.60
2023-01-29T21:36:11.872Z,-2.60
2023-01-29T21:38:39.085Z,-2.60
2023-01-29T21:41:08.896Z,-2.70
2023-01-29T21:43:36.554Z,-2.70
2023-01-29T21:46:05.970Z,-2.70
2023-01-29T21:48:32.802Z,-2.70
2023-01-29T21:50:59.456Z,-2.80
2023-01-29T21:53:26.255Z,-2.80
2023-01-29T21:55:58.420Z,-2.80
2023-01-29T21:58:25.100Z,-2.80
2023-01-29T22:00:51.856Z,-2.80
2023-01-29T22:03:18.767Z,-2.80
2023-01-29T22:05:45.532Z,-2.80
2023-01-29T22:08:12.484Z,-2.80
2023-01-29T22:10:39.441Z,-2.80
2023-01-29T22:13:06.382Z,-2.80
2023-01-29T22:15:33.692Z,-2.80
2023-01-29T22:18:00.458Z,-2.90
2023-01-29T22:20:30.820Z,-2.90
2023-01-29T22:22:59.437Z,-3.00
2023-01-29T22:25:26.809Z,-2.90
2023-01-29T22:27:53.564Z,-3.00
2023-01-29T22:30:21.005Z,-3.00
2023-01-29T22:32:47.739Z,-3.00
2023-01-29T22:35:14.601Z,-3.00
2023-01-29T22:37:41.394Z,-3.00
2023-01-29T22:40:10.426Z,-3.00
2023-01-29T22:42:37.144Z,-3.00
2023-01-29T22:45:04.156Z,-3.10
2023-01-29T22:47:33.608Z,-3.10
2023-01-29T22:50:00.394Z,-3.10
2023-01-29T22:52:27.971Z,-3.10
2023-01-29T22:54:54.728Z,-3.10
2023-01-29T22:57:21.559Z,-3.20
2023-01-29T22:59:48.407Z,-3.20
2023-01-29T23:02:15.157Z,-3.20
2023-01-29T23:04:42.102Z,-3.20
2023-01-29T23:07:09.037Z,-3.30
2023-01-29T23:09:35.765Z,-3.20
2023-01-29T23:12:02.576Z,-3.20
2023-01-29T23:14:29.284Z,-3.30
2023-01-29T23:17:00.034Z,-3.20
2023-01-29T23:19:27.113Z,-3.10
2023-01-29T23:21:54.027Z,-3.10
2023-01-29T23:24:20.898Z,-3.10
2023-01-29T23:27:17.169Z,-3.00
2023-01-29T23:29:45.775Z,-3.00
2023-01-29T23:32:15.057Z,-2.90
2023-01-29T23:34:41.887Z,-2.90
2023-01-29T23:37:08.707Z,-2.90
2023-01-29T23:39:35.536Z,-2.90
2023-01-29T23:42:02.550Z,-2.90
2023-01-29T23:44:29.495Z,-3.00
2023-01-29T23:46:56.380Z,-2.90
2023-01-29T23:49:23.297Z,-2.90
2023-01-29T23:51:50.958Z,-2.80
2023-01-29T23:54:18.183Z,-2.80
2023-01-29T23:56:45.283Z,-2.80
2023-01-29T23:59:12.250Z,-2.70
